createdAt,value
2023-10-17T00:02:11.829Z,101304.13
2023-10-17T00:04:42.549Z,101276.47
2023-10-17T00:07:09.544Z,101275.69
2023-10-17T00:09:38.734Z,101277.53
2023-10-17T00:12:15.138Z,101291.59
2023-10-17T00:14:54.351Z,101284.81
2023-10-17T00:17:21.445Z,101302.94
2023-10-17T00:19:50.434Z,101273.31
2023-10-17T00:22:20.051Z,101268.97
2023-10-17T00:24:48.195Z,101225.69
2023-10-17T00:27:15.654Z,101293.22
2023-10-17T00:29:42.298Z,101268.16
2023-10-17T00:32:13.840Z,101307.34
2023-10-17T00:34:41.963Z,101296.88
2023-10-17T00:37:12.445Z,101300.31
2023-10-17T00:39:39.746Z,101265.81
2023-10-17T00:42:08.108Z,101289.94
2023-10-17T00:44:37.849Z,101295.19
2023-10-17T00:47:06.179Z,101258.81
2023-10-17T00:49:38.929Z,101273.56
2023-10-17T00:52:05.344Z,101260.56
2023-10-17T00:54:33.379Z,101255.38
2023-10-17T00:57:07.053Z,101276.31
2023-10-17T00:59:33.504Z,101259.09
2023-10-17T01:02:08.198Z,101280.88
2023-10-17T01:04:41.221Z,101280.16
2023-10-17T01:07:08.972Z,101247.28
2023-10-17T01:09:36.484Z,101258.50
2023-10-17T01:12:09.673Z,101270.66
2023-10-17T01:14:36.846Z,101279.31
2023-10-17T01:17:08.000Z,101263.72
2023-10-17T01:19:35.001Z,101218.44
2023-10-17T01:22:01.756Z,101243.47
2023-10-17T01:24:28.490Z,101252.19
2023-10-17T01:26:56.631Z,101248.59
2023-10-17T01:29:23.233Z,101246.88
2023-10-17T01:31:51.469Z,101225.16
2023-10-17T01:34:19.127Z,101268.47
2023-10-17T01:36:48.502Z,101265.88
2023-10-17T01:39:15.205Z,101248.38
2023-10-17T01:41:47.600Z,101235.38
2023-10-17T01:44:14.096Z,101239.75
2023-10-17T01:46:40.501Z,101249.44
2023-10-17T01:49:13.951Z,101241.66
2023-10-17T01:51:49.430Z,101271.09
2023-10-17T01:54:18.960Z,101207.78
2023-10-17T01:56:48.487Z,101269.34
2023-10-17T01:59:18.864Z,101248.56
2023-10-17T02:01:45.547Z,101245.22
2023-10-17T02:04:14.300Z,101234.81
2023-10-17T02:06:41.734Z,101227.13
2023-10-17T02:09:31.376Z,101249.66
2023-10-17T02:11:58.243Z,101212.28
2023-10-17T02:14:24.991Z,101227.81
2023-10-17T02:16:51.462Z,101233.09
2023-10-17T02:19:20.900Z,101203.53
2023-10-17T02:21:51.757Z,101239.94
2023-10-17T02:24:21.488Z,101215.59
2023-10-17T02:26:56.596Z,101219.97
2023-10-17T02:29:40.211Z,101196.41
2023-10-17T02:32:12.490Z,101203.25
2023-10-17T02:34:39.448Z,101197.94
2023-10-17T02:37:11.478Z,101225.75
2023-10-17T02:39:39.124Z,101205.22
2023-10-17T02:42:09.615Z,101217.44
2023-10-17T02:44:41.196Z,101191.44
2023-10-17T02:47:12.026Z,101201.66
2023-10-17T02:49:38.595Z,101198.97
2023-10-17T02:52:06.668Z,101192.78
2023-10-17T02:54:53.449Z,101199.78
2023-10-17T02:57:19.828Z,101204.09
2023-10-17T02:59:47.061Z,101189.19
2023-10-17T03:02:13.420Z,101183.78
2023-10-17T03:04:43.562Z,101216.81
2023-10-17T03:07:12.473Z,101190.81
2023-10-17T03:09:40.859Z,101189.34
2023-10-17T03:12:07.445Z,101218.88
2023-10-17T03:14:40.234Z,101197.41
2023-10-17T03:17:07.970Z,101205.16
2023-10-17T03:19:34.968Z,101196.47
2023-10-17T03:22:17.551Z,101224.09
2023-10-17T03:24:45.367Z,101220.50
2023-10-17T03:27:13.145Z,101216.81
2023-10-17T03:29:47.136Z,101194.19
2023-10-17T03:32:14.093Z,101176.81
2023-10-17T03:34:46.195Z,101164.78
2023-10-17T03:37:25.428Z,101206.31
2023-10-17T03:39:53.397Z,101208.13
2023-10-17T03:42:39.404Z,101187.59
2023-10-17T03:45:27.606Z,101191.25
2023-10-17T03:47:54.899Z,101220.78
2023-10-17T03:50:45.244Z,101226.06
2023-10-17T03:53:25.941Z,101177.34
2023-10-17T03:55:52.957Z,101217.09
2023-10-17T03:58:23.960Z,101194.56
2023-10-17T04:00:54.680Z,101212.56
2023-10-17T04:03:31.554Z,101161.56
2023-10-17T04:06:09.314Z,101226.59
2023-10-17T04:08:49.360Z,101182.47
2023-10-17T04:11:20.450Z,101212.06
2023-10-17T04:13:50.610Z,101229.28
2023-10-17T04:16:22.696Z,101153.13
2023-10-17T04:18:56.429Z,101199.69
2023-10-17T04:21:32.598Z,101195.25
2023-10-17T04:24:00.836Z,101188.31
2023-10-17T04:26:30.771Z,101170.00
2023-10-17T04:29:01.879Z,101189.84
2023-10-17T04:31:31.124Z,101162.94
2023-10-17T04:34:07.580Z,101180.25
2023-10-17T04:36:38.554Z,101173.47
2023-10-17T04:39:24.891Z,101191.72
2023-10-17T04:41:52.765Z,101195.09
2023-10-17T04:44:37.349Z,101169.91
2023-10-17T04:47:05.853Z,101211.44
2023-10-17T04:49:37.963Z,101203.03
2023-10-17T04:52:07.923Z,101198.84
2023-10-17T04:54:38.250Z,101182.47
2023-10-17T04:57:06.359Z,101092.41
2023-10-17T04:59:49.562Z,101166.88
2023-10-17T05:02:21.341Z,101188.41
2023-10-17T05:04:55.047Z,101200.44
2023-10-17T05:07:29.361Z,101198.59
2023-10-17T05:10:14.565Z,101195.19
2023-10-17T05:12:59.364Z,101180.50
2023-10-17T05:15:44.219Z,101170.25
2023-10-17T05:18:29.626Z,101206.53
2023-10-17T05:21:14.848Z,101138.16
2023-10-17T05:24:00.281Z,101165.06
2023-10-17T05:26:44.972Z,101205.84
2023-10-17T05:29:29.720Z,101211.00
2023-10-17T05:32:14.446Z,101217.06
2023-10-17T05:35:01.048Z,101193.50
2023-10-17T05:37:46.745Z,101188.28
2023-10-17T05:40:31.412Z,101185.59
2023-10-17T05:43:16.153Z,101200.34
2023-10-17T05:46:00.929Z,101201.31
2023-10-17T05:48:45.863Z,101159.00
2023-10-17T05:51:30.644Z,101217.22
2023-10-17T05:57:03.435Z,101213.78
2023-10-17T05:59:48.173Z,101192.00
2023-10-17T06:02:33.134Z,101211.81
2023-10-17T06:05:17.852Z,101218.72
2023-10-17T06:08:02.658Z,101198.59
2023-10-17T06:10:49.486Z,101179.56
2023-10-17T06:13:34.260Z,101164.88
2023-10-17T06:16:19.082Z,101203.78
2023-10-17T06:18:50.645Z,101203.03
2023-10-17T06:21:20.209Z,101156.28
2023-10-17T06:23:50.069Z,101200.53
2023-10-17T06:26:41.770Z,101214.31
2023-10-17T06:29:17.895Z,101199.75
2023-10-17T06:32:16.231Z,101227.28
2023-10-17T06:34:46.094Z,101230.66
2023-10-17T06:37:29.184Z,101171.03
2023-10-17T06:39:59.381Z,101187.47
2023-10-17T06:42:30.979Z,101219.44
2023-10-17T06:45:12.137Z,101208.22
2023-10-17T06:47:48.600Z,101199.59
2023-10-17T06:50:15.368Z,101207.41
2023-10-17T06:53:02.302Z,101228.09
2023-10-17T06:55:44.438Z,101234.25
2023-10-17T06:58:12.112Z,101227.28
2023-10-17T07:00:55.554Z,101235.94
2023-10-17T07:03:28.995Z,101213.50
2023-10-17T07:06:12.407Z,101151.13
2023-10-17T07:08:40.338Z,101234.97
2023-10-17T07:11:25.574Z,101213.34
2023-10-17T07:14:07.224Z,101187.47
2023-10-17T07:16:43.129Z,101115.56
2023-10-17T07:19:24.946Z,101226.16
2023-10-17T07:22:01.634Z,101180.44
2023-10-17T07:24:32.870Z,101180.31
2023-10-17T07:27:00.083Z,101207.16
2023-10-17T07:29:26.704Z,101108.44
2023-10-17T07:31:55.050Z,101220.97
2023-10-17T07:34:25.273Z,101196.63
2023-10-17T07:37:10.902Z,101158.59
2023-10-17T07:39:40.005Z,101112.72
2023-10-17T07:42:15.367Z,101129.97
2023-10-17T07:44:44.688Z,101198.41
2023-10-17T07:47:20.885Z,101107.41
2023-10-17T07:49:48.930Z,101203.44
2023-10-17T07:52:18.671Z,101185.41
2023-10-17T07:55:06.236Z,101103.94
2023-10-17T07:57:37.395Z,101193.81
2023-10-17T08:00:24.874Z,101187.63
2023-10-17T08:02:53.147Z,101097.56
2023-10-17T08:05:27.850Z,101201.31
2023-10-17T08:08:05.445Z,101198.09
2023-10-17T08:10:36.524Z,101200.53
2023-10-17T08:13:03.445Z,101204.94
2023-10-17T08:15:49.141Z,101145.09
2023-10-17T08:18:16.200Z,101178.03
2023-10-17T08:20:49.078Z,101180.56
2023-10-17T08:23:20.705Z,101183.38
2023-10-17T08:25:57.871Z,101186.69
2023-10-17T08:28:42.999Z,101153.66
2023-10-17T08:31:19.549Z,101120.72
2023-10-17T08:33:51.785Z,101184.88
2023-10-17T08:36:18.284Z,101175.19
2023-10-17T08:38:44.718Z,101193.38
2023-10-17T08:41:11.107Z,101172.84
2023-10-17T08:43:37.591Z,101139.66
2023-10-17T08:46:12.028Z,101194.28
2023-10-17T08:48:38.695Z,101177.84
2023-10-17T08:51:18.345Z,101201.94
2023-10-17T08:53:55.868Z,101226.25
2023-10-17T08:56:22.672Z,101175.00
2023-10-17T08:58:49.189Z,101195.00
2023-10-17T09:01:19.788Z,101156.16
2023-10-17T09:03:48.290Z,101069.66
2023-10-17T09:06:21.032Z,101165.66
2023-10-17T09:08:56.696Z,101113.72
2023-10-17T09:11:35.574Z,101209.47
2023-10-17T09:14:16.365Z,101181.72
2023-10-17T09:17:15.791Z,101192.03
2023-10-17T09:19:52.013Z,101177.97
2023-10-17T09:22:21.570Z,101211.38
2023-10-17T09:24:51.321Z,101166.16
2023-10-17T09:27:19.750Z,101171.63
2023-10-17T09:29:48.060Z,101204.19
2023-10-17T09:32:37.570Z,101200.38
2023-10-17T09:35:11.702Z,101157.25
2023-10-17T09:37:40.177Z,101201.88
2023-10-17T09:40:13.168Z,101161.88
2023-10-17T09:42:47.380Z,101203.31
2023-10-17T09:45:33.425Z,101204.69
2023-10-17T09:48:07.582Z,101190.75
2023-10-17T09:50:36.408Z,101196.41
2023-10-17T09:53:25.028Z,101099.78
2023-10-17T09:55:51.981Z,101181.72
2023-10-17T09:58:30.061Z,101145.59
2023-10-17T10:01:01.787Z,101072.28
2023-10-17T10:03:29.787Z,101160.91
2023-10-17T10:06:27.202Z,101055.38
2023-10-17T10:08:58.257Z,101153.16
2023-10-17T10:11:51.210Z,101149.72
2023-10-17T10:14:42.040Z,101081.56
2023-10-17T10:17:10.182Z,101087.75
2023-10-17T10:19:43.092Z,101165.06
2023-10-17T10:22:14.988Z,101167.91
2023-10-17T10:24:43.305Z,101168.06
2023-10-17T10:27:10.264Z,101167.94
2023-10-17T10:29:37.200Z,101133.56
2023-10-17T10:32:07.191Z,101161.94
2023-10-17T10:34:36.754Z,101043.41
2023-10-17T10:37:10.998Z,101125.91
2023-10-17T10:39:37.583Z,101172.69
2023-10-17T10:42:08.253Z,101144.19
2023-10-17T10:44:42.762Z,101119.38
2023-10-17T10:47:11.203Z,101174.31
2023-10-17T10:49:37.771Z,101152.56
2023-10-17T10:52:04.441Z,101124.72
2023-10-17T10:54:51.644Z,101143.56
2023-10-17T10:57:30.131Z,101149.09
2023-10-17T10:59:56.682Z,101139.78
2023-10-17T11:02:24.060Z,101031.53
2023-10-17T11:04:54.023Z,101135.22
2023-10-17T11:07:24.900Z,101130.38
2023-10-17T11:10:08.945Z,101115.94
2023-10-17T11:12:35.943Z,101125.38
2023-10-17T11:15:22.834Z,101126.34
2023-10-17T11:17:49.313Z,101115.91
2023-10-17T11:20:16.306Z,101105.59
2023-10-17T11:22:43.763Z,101104.44
2023-10-17T11:25:15.112Z,101130.59
2023-10-17T11:28:03.286Z,101107.13
2023-10-17T11:30:37.319Z,101092.47
2023-10-17T11:33:05.370Z,101118.69
2023-10-17T11:35:33.656Z,101047.59
2023-10-17T11:38:08.288Z,101101.19
2023-10-17T11:40:40.139Z,101076.50
2023-10-17T11:43:20.528Z,101079.06
2023-10-17T11:45:47.967Z,101079.06
2023-10-17T11:48:31.148Z,101094.78
2023-10-17T11:51:08.817Z,101063.19
2023-10-17T11:53:35.793Z,101051.09
2023-10-17T11:56:03.083Z,101077.56
2023-10-17T11:58:30.397Z,101083.72
2023-10-17T12:00:57.619Z,101076.75
2023-10-17T12:03:27.244Z,101045.09
2023-10-17T12:05:55.022Z,101053.97
2023-10-17T12:08:26.291Z,101060.56
2023-10-17T12:10:54.455Z,100981.72
2023-10-17T12:13:21.059Z,100970.00
2023-10-17T12:15:47.987Z,100963.16
2023-10-17T12:18:14.771Z,101026.63
2023-10-17T12:20:44.420Z,101066.94
2023-10-17T12:23:17.404Z,100962.50
2023-10-17T12:25:44.249Z,101064.66
2023-10-17T12:28:10.660Z,101005.91
2023-10-17T12:30:37.473Z,101056.47
2023-10-17T12:33:06.024Z,101045.59
2023-10-17T12:35:33.030Z,101041.47
2023-10-17T12:38:00.717Z,100978.66
2023-10-17T12:40:27.717Z,100978.81
2023-10-17T12:42:57.578Z,101003.41
2023-10-17T12:45:25.656Z,100984.44
2023-10-17T12:47:52.653Z,100959.66
2023-10-17T12:50:22.066Z,101000.13
2023-10-17T12:52:48.699Z,100994.00
2023-10-17T12:55:15.156Z,100989.50
2023-10-17T12:57:41.783Z,100936.94
2023-10-17T13:00:13.178Z,100994.22
2023-10-17T13:02:40.742Z,100976.81
2023-10-17T13:05:10.328Z,100964.50
2023-10-17T13:07:40.428Z,100999.56
2023-10-17T13:10:08.247Z,100964.00
2023-10-17T13:12:35.081Z,100984.28
2023-10-17T13:15:01.575Z,100974.69
2023-10-17T13:17:29.781Z,100934.00
2023-10-17T13:19:58.526Z,100973.06
2023-10-17T13:22:25.007Z,100927.44
2023-10-17T13:24:51.513Z,100962.38
2023-10-17T13:27:20.729Z,100923.34
2023-10-17T13:29:48.632Z,100892.06
2023-10-17T13:32:15.121Z,100916.78
2023-10-17T13:34:41.536Z,100961.84
2023-10-17T13:37:09.414Z,100962.06
2023-10-17T13:39:38.104Z,100962.09
2023-10-17T13:42:05.355Z,100928.78
2023-10-17T13:44:32.305Z,100922.50
2023-10-17T13:46:58.834Z,100901.38
2023-10-17T13:49:27.134Z,100908.88
2023-10-17T13:51:55.989Z,100897.34
2023-10-17T13:54:22.702Z,100913.53
2023-10-17T13:56:52.112Z,100927.00
2023-10-17T13:59:18.541Z,100902.56
2023-10-17T14:01:47.767Z,100913.28
2023-10-17T14:04:14.537Z,100933.19
2023-10-17T14:06:43.364Z,100924.59
2023-10-17T14:09:17.534Z,100878.19
2023-10-17T14:11:48.079Z,100915.53
2023-10-17T14:14:17.912Z,100907.06
2023-10-17T14:16:45.189Z,100906.50
2023-10-17T14:19:31.801Z,100950.91
2023-10-17T14:22:22.114Z,100925.47
2023-10-17T14:24:54.573Z,100912.59
2023-10-17T14:27:23.992Z,100926.44
2023-10-17T14:29:51.925Z,100928.44
2023-10-17T14:32:21.397Z,100932.63
2023-10-17T14:34:49.299Z,100858.03
2023-10-17T14:37:16.298Z,100928.97
2023-10-17T14:39:45.659Z,100878.34
2023-10-17T14:42:14.855Z,100859.63
2023-10-17T14:44:43.999Z,100916.41
2023-10-17T14:47:10.395Z,100890.47
2023-10-17T14:49:37.296Z,100878.91
2023-10-17T14:52:03.940Z,100905.81
2023-10-17T14:54:32.679Z,100849.38
2023-10-17T14:57:03.080Z,100883.19
2023-10-17T14:59:29.696Z,100873.16
2023-10-17T15:01:56.547Z,100811.69
2023-10-17T15:04:23.126Z,100872.50
2023-10-17T15:06:49.681Z,100886.09
2023-10-17T15:09:19.523Z,100778.03
2023-10-17T15:11:47.126Z,100837.50
2023-10-17T15:14:13.535Z,100850.59
2023-10-17T15:16:40.147Z,100791.63
2023-10-17T15:19:10.325Z,100852.56
2023-10-17T15:21:37.007Z,100826.88
2023-10-17T15:24:03.628Z,100880.16
2023-10-17T15:26:30.054Z,100877.00
2023-10-17T15:28:56.556Z,100816.47
2023-10-17T15:31:23.181Z,100845.03
2023-10-17T15:33:50.380Z,100869.53
2023-10-17T15:36:27.260Z,100882.41
2023-10-17T15:38:54.951Z,100879.47
2023-10-17T15:41:22.429Z,100814.09
2023-10-17T15:43:48.798Z,100857.19
2023-10-17T15:46:16.854Z,100872.25
2023-10-17T15:48:43.707Z,100886.06
2023-10-17T15:51:10.358Z,100816.47
2023-10-17T15:53:36.765Z,100889.75
2023-10-17T15:56:03.679Z,100892.88
2023-10-17T15:58:32.362Z,100894.84
2023-10-17T16:00:59.137Z,100861.44
2023-10-17T16:03:26.070Z,100891.78
2023-10-17T16:05:54.134Z,100853.38
2023-10-17T16:08:21.966Z,100898.78
2023-10-17T16:10:58.123Z,100894.75
2023-10-17T16:13:25.161Z,100862.66
2023-10-17T16:15:59.912Z,100887.16
2023-10-17T16:18:27.663Z,100855.81
2023-10-17T16:20:54.182Z,100881.41
2023-10-17T16:23:21.504Z,100809.59
2023-10-17T16:25:51.946Z,100889.81
2023-10-17T16:28:18.470Z,100878.72
2023-10-17T16:30:45.523Z,100856.16
2023-10-17T16:33:14.137Z,100862.13
2023-10-17T16:35:43.307Z,100858.06
2023-10-17T16:38:12.992Z,100832.25
2023-10-17T16:40:44.529Z,100798.66
2023-10-17T16:43:12.025Z,100905.41
2023-10-17T16:45:38.555Z,100865.94
2023-10-17T16:48:08.277Z,100862.59
2023-10-17T16:50:34.712Z,100895.53
2023-10-17T16:53:01.160Z,100871.19
2023-10-17T16:55:27.885Z,100876.94
2023-10-17T16:57:54.692Z,100868.06
2023-10-17T17:00:21.695Z,100903.22
2023-10-17T17:02:48.373Z,100885.78
2023-10-17T17:05:15.871Z,100877.91
2023-10-17T17:07:43.035Z,100898.34
2023-10-17T17:10:14.907Z,100801.28
2023-10-17T17:12:46.373Z,100899.78
2023-10-17T17:15:14.133Z,100819.81
2023-10-17T17:17:41.543Z,100856.97
2023-10-17T17:20:15.411Z,100871.22
2023-10-17T17:22:42.451Z,100856.75
2023-10-17T17:25:14.759Z,100877.72
2023-10-17T17:27:42.372Z,100861.75
2023-10-17T17:30:09.724Z,100898.34
2023-10-17T17:32:36.662Z,100886.16
2023-10-17T17:35:04.712Z,100904.06
2023-10-17T17:37:31.257Z,100861.75
2023-10-17T17:39:57.856Z,100881.25
2023-10-17T17:42:24.399Z,100774.34
2023-10-17T17:44:50.934Z,100830.56
2023-10-17T17:47:18.757Z,100892.88
2023-10-17T17:49:46.812Z,100883.81
2023-10-17T17:52:13.264Z,100878.66
2023-10-17T17:54:39.828Z,100869.50
2023-10-17T17:57:07.096Z,100835.25
2023-10-17T17:59:33.975Z,100851.25
2023-10-17T18:02:00.516Z,100845.28
2023-10-17T18:04:31.508Z,100879.22
2023-10-17T18:07:02.011Z,100843.91
2023-10-17T18:09:29.396Z,100741.72
2023-10-17T18:11:56.518Z,100794.34
2023-10-17T18:14:24.079Z,100877.47
2023-10-17T18:16:50.625Z,100821.88
2023-10-17T18:19:17.145Z,100747.38
2023-10-17T18:21:43.692Z,100877.19
2023-10-17T18:24:10.670Z,100726.72
2023-10-17T18:26:39.220Z,100883.66
2023-10-17T18:29:11.398Z,100799.00
2023-10-17T18:31:40.316Z,100864.78
2023-10-17T18:34:07.313Z,100874.66
2023-10-17T18:36:34.553Z,100769.84
2023-10-17T18:39:04.134Z,100809.44
2023-10-17T18:41:31.661Z,100662.09
2023-10-17T18:44:00.238Z,100691.28
2023-10-17T18:46:26.880Z,100850.22
2023-10-17T18:48:53.467Z,100749.09
2023-10-17T18:51:20.455Z,100833.53
2023-10-17T18:53:47.320Z,100820.69
2023-10-17T18:56:14.807Z,100852.09
2023-10-17T18:58:42.176Z,100753.00
2023-10-17T19:01:14.756Z,100768.50
2023-10-17T19:03:43.168Z,100805.50
2023-10-17T19:06:11.205Z,100834.28
2023-10-17T19:08:39.152Z,100813.16
2023-10-17T19:11:06.157Z,100840.72
2023-10-17T19:13:34.466Z,100808.69
2023-10-17T19:16:01.385Z,100711.00
2023-10-17T19:18:28.932Z,100744.41
2023-10-17T19:20:55.845Z,100787.59
2023-10-17T19:23:23.015Z,100666.50
2023-10-17T19:25:49.831Z,100718.56
2023-10-17T19:28:19.552Z,100739.97
2023-10-17T19:30:46.808Z,100790.00
2023-10-17T19:33:15.443Z,100749.75
2023-10-17T19:35:42.039Z,100730.66
2023-10-17T19:38:10.733Z,100796.16
2023-10-17T19:40:37.777Z,100791.59
2023-10-17T19:43:04.617Z,100828.66
2023-10-17T19:45:31.743Z,100794.69
2023-10-17T19:48:01.605Z,100815.22
2023-10-17T19:50:29.015Z,100803.47
2023-10-17T19:52:57.251Z,100763.09
2023-10-17T19:55:24.268Z,100799.38
2023-10-17T19:57:51.345Z,100715.78
2023-10-17T20:00:20.456Z,100790.59
2023-10-17T20:02:47.834Z,100665.47
2023-10-17T20:05:14.650Z,100799.44
2023-10-17T20:07:41.600Z,100804.38
2023-10-17T20:10:10.250Z,100787.16
2023-10-17T20:12:38.179Z,100779.91
2023-10-17T20:15:12.153Z,100799.28
2023-10-17T20:17:41.516Z,100759.72
2023-10-17T20:20:11.402Z,100697.91
2023-10-17T20:22:38.310Z,100733.97
2023-10-17T20:25:05.573Z,100763.34
2023-10-17T20:27:32.335Z,100765.13
2023-10-17T20:29:58.941Z,100739.38
2023-10-17T20:32:25.806Z,100702.34
2023-10-17T20:34:53.134Z,100678.38
2023-10-17T20:37:20.023Z,100784.28
2023-10-17T20:39:48.171Z,100779.75
2023-10-17T20:42:14.977Z,100752.84
2023-10-17T20:44:41.551Z,100763.34
2023-10-17T20:47:08.085Z,100674.84
2023-10-17T20:49:35.422Z,100753.09
2023-10-17T20:52:11.123Z,100724.00
2023-10-17T20:54:42.613Z,100675.41
2023-10-17T20:57:10.276Z,100774.34
2023-10-17T20:59:37.196Z,100657.03
2023-10-17T21:02:04.833Z,100726.63
2023-10-17T21:04:31.684Z,100724.97
2023-10-17T21:06:58.253Z,100739.59
2023-10-17T21:09:24.745Z,100744.72
2023-10-17T21:11:51.159Z,100713.97
2023-10-17T21:14:17.592Z,100627.75
2023-10-17T21:16:44.332Z,100692.06
2023-10-17T21:19:11.317Z,100719.13
2023-10-17T21:21:38.548Z,100684.81
2023-10-17T21:24:08.488Z,100708.72
2023-10-17T21:26:34.983Z,100686.16
2023-10-17T21:29:01.792Z,100734.47
2023-10-17T21:31:28.654Z,100696.59
2023-10-17T21:33:55.301Z,100706.91
2023-10-17T21:36:22.430Z,100708.88
2023-10-17T21:38:49.991Z,100693.22
2023-10-17T21:41:16.959Z,100685.72
2023-10-17T21:43:43.695Z,100673.22
2023-10-17T21:46:10.823Z,100671.84
2023-10-17T21:48:45.421Z,100589.53
2023-10-17T21:51:19.373Z,100687.75
2023-10-17T21:53:45.861Z,100693.41
2023-10-17T21:56:13.671Z,100637.47
2023-10-17T21:58:40.160Z,100663.75
2023-10-17T22:01:16.562Z,100649.16
2023-10-17T22:03:44.125Z,100674.03
2023-10-17T22:06:11.140Z,100573.06
2023-10-17T22:08:39.640Z,100676.44
2023-10-17T22:11:16.528Z,100617.25
2023-10-17T22:13:46.174Z,100662.72
2023-10-17T22:16:15.073Z,100604.28
2023-10-17T22:18:43.136Z,100635.44
2023-10-17T22:21:11.209Z,100620.56
2023-10-17T22:23:38.075Z,100589.84
2023-10-17T22:26:14.177Z,100576.59
2023-10-17T22:28:41.042Z,100614.47
2023-10-17T22:31:11.465Z,100618.00
2023-10-17T22:33:39.154Z,100675.50
2023-10-17T22:36:06.729Z,100644.50
2023-10-17T22:38:33.302Z,100651.09
2023-10-17T22:40:59.752Z,100599.41
2023-10-17T22:43:26.200Z,100544.63
2023-10-17T22:45:52.655Z,100665.78
2023-10-17T22:48:19.120Z,100529.13
2023-10-17T22:50:45.841Z,100622.63
2023-10-17T22:53:13.236Z,100566.75
2023-10-17T22:55:40.577Z,100608.41
2023-10-17T22:58:08.160Z,100641.50
2023-10-17T23:00:35.456Z,100576.22
2023-10-17T23:03:03.921Z,100579.88
2023-10-17T23:05:30.392Z,100636.06
2023-10-17T23:07:56.784Z,100580.91
2023-10-17T23:10:23.491Z,100621.47
2023-10-17T23:12:49.939Z,100616.25
2023-10-17T23:15:16.458Z,100547.13
2023-10-17T23:17:46.624Z,100485.78
2023-10-17T23:20:16.018Z,100584.19
2023-10-17T23:22:46.933Z,100605.56
2023-10-17T23:25:14.205Z,100580.78
2023-10-17T23:27:42.044Z,100582.88
2023-10-17T23:30:16.014Z,100592.38
2023-10-17T23:32:44.901Z,100569.69
2023-10-17T23:35:12.000Z,100591.88
2023-10-17T23:37:39.898Z,100577.59
2023-10-17T23:40:11.332Z,100564.13
2023-10-17T23:42:38.316Z,100580.03
2023-10-17T23:45:05.685Z,100554.94
2023-10-17T23:47:36.316Z,100539.75
2023-10-17T23:50:11.724Z,100552.34
2023-10-17T23:52:40.841Z,100567.13
2023-10-17T23:55:09.205Z,100558.41
2023-10-17T23:57:36.938Z,100526.56
